sensor_id;sensor_type;location;lat;lon;timestamp;pressure;altitude;pressure_sealevel;temperature;humidity
42887;BME280;29032;56.028;92.904;2023-03-14T00:00:11;100910.94;;;-3.74;46.19
42887;BME280;29032;56.028;92.904;2023-03-14T00:05:13;100908.97;;;-3.73;46.20
42887;BME280;29032;56.028;92.904;2023-03-14T00:10:36;100925.38;;;-3.73;46.64
42887;BME280;29032;56.028;92.904;2023-03-14T00:16:03;100925.22;;;-3.86;47.15
42887;BME280;29032;56.028;92.904;2023-03-14T00:21:24;100919.88;;;-3.93;47.91
42887;BME280;29032;56.028;92.904;2023-03-14T00:26:45;100924.88;;;-3.88;47.52
42887;BME280;29032;56.028;92.904;2023-03-14T00:32:06;100925.91;;;-3.82;47.20
42887;BME280;29032;56.028;92.904;2023-03-14T00:37:27;100915.38;;;-4.03;48.35
42887;BME280;29032;56.028;92.904;2023-03-14T00:42:47;100914.25;;;-4.06;48.57
42887;BME280;29032;56.028;92.904;2023-03-14T00:48:09;100908.16;;;-4.14;48.59
42887;BME280;29032;56.028;92.904;2023-03-14T00:53:30;100913.16;;;-4.09;48.31
42887;BME280;29032;56.028;92.904;2023-03-14T00:58:32;100905.91;;;-4.19;49.05
42887;BME280;29032;56.028;92.904;2023-03-14T01:03:36;100910.59;;;-4.19;49.36
42887;BME280;29032;56.028;92.904;2023-03-14T01:08:38;100842.28;;;-4.63;49.75
42887;BME280;29032;56.028;92.904;2023-03-14T01:13:40;100905.91;;;-4.19;50.16
42887;BME280;29032;56.028;92.904;2023-03-14T01:18:45;100909.13;;;-4.24;50.40
42887;BME280;29032;56.028;92.904;2023-03-14T01:24:06;100899.63;;;-4.39;51.17
42887;BME280;29032;56.028;92.904;2023-03-14T01:29:27;100899.50;;;-4.32;51.30
42887;BME280;29032;56.028;92.904;2023-03-14T01:34:49;100905.91;;;-4.19;50.87
42887;BME280;29032;56.028;92.904;2023-03-14T01:39:51;100902.69;;;-4.14;50.48
42887;BME280;29032;56.028;92.904;2023-03-14T01:44:57;100904.22;;;-4.13;50.46
42887;BME280;29032;56.028;92.904;2023-03-14T01:50:04;100911.75;;;-4.17;50.57
42887;BME280;29032;56.028;92.904;2023-03-14T01:55:12;100910.66;;;-4.23;50.36
42887;BME280;29032;56.028;92.904;2023-03-14T02:00:19;100914.00;;;-4.35;51.15
42887;BME280;29032;56.028;92.904;2023-03-14T02:05:27;100929.16;;;-4.30;51.36
42887;BME280;29032;56.028;92.904;2023-03-14T02:10:38;100920.53;;;-4.29;51.90
42887;BME280;29032;56.028;92.904;2023-03-14T02:15:42;100931.88;;;-4.30;51.87
42887;BME280;29032;56.028;92.904;2023-03-14T02:20:54;100923.56;;;-4.23;51.60
42887;BME280;29032;56.028;92.904;2023-03-14T02:26:03;100937.63;;;-4.25;51.75
42887;BME280;29032;56.028;92.904;2023-03-14T02:31:09;100937.22;;;-4.23;51.85
42887;BME280;29032;56.028;92.904;2023-03-14T02:36:13;100933.72;;;-4.24;52.02
42887;BME280;29032;56.028;92.904;2023-03-14T02:41:17;100931.69;;;-4.20;51.92
42887;BME280;29032;56.028;92.904;2023-03-14T02:46:27;100931.44;;;-4.05;52.03
42887;BME280;29032;56.028;92.904;2023-03-14T02:51:30;100940.47;;;-4.09;51.12
42887;BME280;29032;56.028;92.904;2023-03-14T02:56:32;100939.34;;;-4.11;51.81
42887;BME280;29032;56.028;92.904;2023-03-14T03:01:38;100944.28;;;-4.02;51.16
42887;BME280;29032;56.028;92.904;2023-03-14T03:06:40;100950.91;;;-4.03;52.06
42887;BME280;29032;56.028;92.904;2023-03-14T03:11:43;100956.25;;;-3.96;51.92
42887;BME280;29032;56.028;92.904;2023-03-14T03:16:52;100948.16;;;-3.80;52.04
42887;BME280;29032;56.028;92.904;2023-03-14T03:21:57;100946.03;;;-3.92;51.87
42887;BME280;29032;56.028;92.904;2023-03-14T03:26:59;100940.56;;;-3.92;52.28
42887;BME280;29032;56.028;92.904;2023-03-14T03:32:02;100948.03;;;-3.73;52.19
42887;BME280;29032;56.028;92.904;2023-03-14T03:37:05;100963.44;;;-3.63;51.94
42887;BME280;29032;56.028;92.904;2023-03-14T03:42:11;100950.19;;;-3.44;51.46
42887;BME280;29032;56.028;92.904;2023-03-14T03:47:15;100944.09;;;-3.32;50.66
42887;BME280;29032;56.028;92.904;2023-03-14T03:52:18;100944.25;;;-3.39;50.14
42887;BME280;29032;56.028;92.904;2023-03-14T03:57:20;100942.19;;;-3.55;50.51
42887;BME280;29032;56.028;92.904;2023-03-14T04:02:24;100934.56;;;-3.64;50.98
42887;BME280;29032;56.028;92.904;2023-03-14T04:07:26;100937.63;;;-3.62;50.75
42887;BME280;29032;56.028;92.904;2023-03-14T04:12:29;100937.91;;;-3.76;51.10
42887;BME280;29032;56.028;92.904;2023-03-14T04:17:56;100935.25;;;-3.80;51.22
42887;BME280;29032;56.028;92.904;2023-03-14T04:22:59;100928.09;;;-3.93;51.37
42887;BME280;29032;56.028;92.904;2023-03-14T04:28:02;100934.84;;;-3.78;50.93
42887;BME280;29032;56.028;92.904;2023-03-14T04:33:06;100928.31;;;-3.64;50.76
42887;BME280;29032;56.028;92.904;2023-03-14T04:38:12;100911.41;;;-3.39;49.46
42887;BME280;29032;56.028;92.904;2023-03-14T04:43:15;100913.25;;;-3.53;50.33
42887;BME280;29032;56.028;92.904;2023-03-14T04:48:26;100901.88;;;-3.71;50.53
42887;BME280;29032;56.028;92.904;2023-03-14T04:53:28;100898.22;;;-3.84;51.40
42887;BME280;29032;56.028;92.904;2023-03-14T04:58:32;100893.66;;;-3.91;50.62
42887;BME280;29032;56.028;92.904;2023-03-14T05:03:37;100895.78;;;-3.78;50.54
42887;BME280;29032;56.028;92.904;2023-03-14T05:09:15;100891.06;;;-3.58;49.63
42887;BME280;29032;56.028;92.904;2023-03-14T05:14:49;100888.41;;;-3.62;49.17
42887;BME280;29032;56.028;92.904;2023-03-14T05:20:18;100875.44;;;-3.58;50.15
42887;BME280;29032;56.028;92.904;2023-03-14T05:25:39;100871.13;;;-3.39;49.39
42887;BME280;29032;56.028;92.904;2023-03-14T05:30:59;100871.28;;;-3.10;49.30
42887;BME280;29032;56.028;92.904;2023-03-14T05:36:21;100864.88;;;-2.87;47.45
42887;BME280;29032;56.028;92.904;2023-03-14T05:41:49;100856.91;;;-2.81;46.80
42887;BME280;29032;56.028;92.904;2023-03-14T05:47:11;100853.63;;;-2.76;46.80
42887;BME280;29032;56.028;92.904;2023-03-14T05:52:26;100854.31;;;-2.56;45.85
42887;BME280;29032;56.028;92.904;2023-03-14T05:57:46;100848.47;;;-2.42;45.72
42887;BME280;29032;56.028;92.904;2023-03-14T06:03:12;100852.75;;;-2.40;44.26
42887;BME280;29032;56.028;92.904;2023-03-14T06:08:20;100847.88;;;-2.33;44.36
42887;BME280;29032;56.028;92.904;2023-03-14T06:13:22;100839.84;;;-2.27;44.42
42887;BME280;29032;56.028;92.904;2023-03-14T06:18:25;100834.28;;;-2.24;43.64
42887;BME280;29032;56.028;92.904;2023-03-14T06:23:29;100828.69;;;-2.20;43.44
42887;BME280;29032;56.028;92.904;2023-03-14T06:28:33;100837.09;;;-2.11;44.07
42887;BME280;29032;56.028;92.904;2023-03-14T06:33:37;100830.81;;;-1.82;44.13
42887;BME280;29032;56.028;92.904;2023-03-14T06:38:42;100822.53;;;-1.41;43.26
42887;BME280;29032;56.028;92.904;2023-03-14T06:43:44;100826.13;;;-1.31;42.07
42887;BME280;29032;56.028;92.904;2023-03-14T06:48:47;100824.38;;;-1.25;42.33
42887;BME280;29032;56.028;92.904;2023-03-14T06:53:51;100818.75;;;-1.21;41.97
42887;BME280;29032;56.028;92.904;2023-03-14T06:58:56;100819.78;;;-1.41;41.70
42887;BME280;29032;56.028;92.904;2023-03-14T07:04:01;100812.84;;;-1.58;41.75
42887;BME280;29032;56.028;92.904;2023-03-14T07:09:05;100809.22;;;-1.68;42.25
42887;BME280;29032;56.028;92.904;2023-03-14T07:14:11;100797.88;;;-1.82;42.10
42887;BME280;29032;56.028;92.904;2023-03-14T07:19:14;100801.63;;;-1.76;43.46
42887;BME280;29032;56.028;92.904;2023-03-14T07:24:17;100809.56;;;-1.53;42.00
42887;BME280;29032;56.028;92.904;2023-03-14T07:29:20;100785.72;;;-1.43;42.43
42887;BME280;29032;56.028;92.904;2023-03-14T07:34:23;100791.75;;;-1.36;41.49
42887;BME280;29032;56.028;92.904;2023-03-14T07:39:27;100779.69;;;-1.25;41.79
42887;BME280;29032;56.028;92.904;2023-03-14T07:44:36;100770.78;;;-1.42;41.39
42887;BME280;29032;56.028;92.904;2023-03-14T07:49:38;100767.50;;;-1.50;41.64
42887;BME280;29032;56.028;92.904;2023-03-14T07:54:42;100763.13;;;-1.35;41.29
42887;BME280;29032;56.028;92.904;2023-03-14T07:59:44;100757.28;;;-1.37;41.94
42887;BME280;29032;56.028;92.904;2023-03-14T08:04:46;100760.91;;;-1.52;42.00
42887;BME280;29032;56.028;92.904;2023-03-14T08:09:50;100776.84;;;-1.60;41.55
42887;BME280;29032;56.028;92.904;2023-03-14T08:14:52;100764.88;;;-1.66;41.82
42887;BME280;29032;56.028;92.904;2023-03-14T08:19:54;100776.81;;;-1.73;41.68
42887;BME280;29032;56.028;92.904;2023-03-14T08:24:57;100771.88;;;-1.65;41.61
42887;BME280;29032;56.028;92.904;2023-03-14T08:29:59;100764.97;;;-1.57;41.48
42887;BME280;29032;56.028;92.904;2023-03-14T08:35:02;100767.84;;;-1.48;41.90
42887;BME280;29032;56.028;92.904;2023-03-14T08:40:08;100762.78;;;-1.37;41.56
42887;BME280;29032;56.028;92.904;2023-03-14T08:45:12;100772.44;;;-1.19;41.32
42887;BME280;29032;56.028;92.904;2023-03-14T08:50:14;100762.31;;;-1.22;41.07
42887;BME280;29032;56.028;92.904;2023-03-14T08:55:18;100759.03;;;-1.17;41.31
42887;BME280;29032;56.028;92.904;2023-03-14T09:00:21;100761.63;;;-1.01;41.25
42887;BME280;29032;56.028;92.904;2023-03-14T09:05:23;100765.75;;;-0.84;40.91
42887;BME280;29032;56.028;92.904;2023-03-14T09:10:27;100753.31;;;-0.76;40.25
42887;BME280;29032;56.028;92.904;2023-03-14T09:15:29;100763.88;;;-0.87;41.04
42887;BME280;29032;56.028;92.904;2023-03-14T09:20:32;100749.97;;;-0.92;40.40
42887;BME280;29032;56.028;92.904;2023-03-14T09:25:35;100747.53;;;-0.90;40.85
42887;BME280;29032;56.028;92.904;2023-03-14T09:30:38;100739.88;;;-0.73;40.55
42887;BME280;29032;56.028;92.904;2023-03-14T09:35:40;100750.31;;;-0.68;40.48
42887;BME280;29032;56.028;92.904;2023-03-14T09:40:43;100742.78;;;-0.55;40.62
42887;BME280;29032;56.028;92.904;2023-03-14T09:45:48;100746.06;;;-0.47;40.23
42887;BME280;29032;56.028;92.904;2023-03-14T09:50:53;100750.53;;;-0.41;39.83
42887;BME280;29032;56.028;92.904;2023-03-14T09:55:58;100750.47;;;-0.50;39.06
42887;BME280;29032;56.028;92.904;2023-03-14T10:01:00;100750.84;;;-0.61;39.43
42887;BME280;29032;56.028;92.904;2023-03-14T10:06:11;100746.75;;;-0.56;39.23
42887;BME280;29032;56.028;92.904;2023-03-14T10:11:16;100751.59;;;-0.60;38.99
42887;BME280;29032;56.028;92.904;2023-03-14T10:16:28;100752.38;;;-0.60;39.43
42887;BME280;29032;56.028;92.904;2023-03-14T10:21:36;100742.72;;;-0.64;39.04
42887;BME280;29032;56.028;92.904;2023-03-14T10:26:40;100736.50;;;-0.78;39.13
42887;BME280;29032;56.028;92.904;2023-03-14T10:31:48;100737.53;;;-0.84;39.58
42887;BME280;29032;56.028;92.904;2023-03-14T10:36:53;100737.59;;;-0.75;39.74
42887;BME280;29032;56.028;92.904;2023-03-14T10:42:04;100735.78;;;-0.56;39.90
42887;BME280;29032;56.028;92.904;2023-03-14T10:47:16;100733.31;;;-0.54;39.07
42887;BME280;29032;56.028;92.904;2023-03-14T10:52:22;100722.03;;;-0.56;39.72
42887;BME280;29032;56.028;92.904;2023-03-14T10:57:26;100719.59;;;-0.54;39.79
42887;BME280;29032;56.028;92.904;2023-03-14T11:02:41;100723.56;;;-0.55;39.66
42887;BME280;29032;56.028;92.904;2023-03-14T11:07:48;100728.13;;;-0.74;39.59
42887;BME280;29032;56.028;92.904;2023-03-14T11:13:02;100728.34;;;-0.68;40.03
42887;BME280;29032;56.028;92.904;2023-03-14T11:23:48;100721.63;;;-0.67;40.39
42887;BME280;29032;56.028;92.904;2023-03-14T11:28:57;100730.38;;;-0.60;40.32
42887;BME280;29032;56.028;92.904;2023-03-14T11:34:04;100732.88;;;-0.53;39.83
42887;BME280;29032;56.028;92.904;2023-03-14T11:39:14;100731.66;;;-0.52;39.90
42887;BME280;29032;56.028;92.904;2023-03-14T11:44:20;100738.56;;;-0.47;40.52
42887;BME280;29032;56.028;92.904;2023-03-14T11:49:31;100740.41;;;-0.44;40.09
42887;BME280;29032;56.028;92.904;2023-03-14T11:54:41;100741.00;;;-0.49;40.01
42887;BME280;29032;56.028;92.904;2023-03-14T11:59:50;100747.13;;;-0.45;39.98
42887;BME280;29032;56.028;92.904;2023-03-14T12:05:16;100748.41;;;-0.37;40.58
42887;BME280;29032;56.028;92.904;2023-03-14T12:10:23;100745.41;;;-0.30;40.39
42887;BME280;29032;56.028;92.904;2023-03-14T12:15:27;100750.06;;;-0.17;39.80
42887;BME280;29032;56.028;92.904;2023-03-14T12:20:29;100750.72;;;-0.13;39.72
42887;BME280;29032;56.028;92.904;2023-03-14T12:25:32;100761.34;;;-0.03;39.78
42887;BME280;29032;56.028;92.904;2023-03-14T12:30:38;100762.75;;;0.02;39.57
42887;BME280;29032;56.028;92.904;2023-03-14T12:35:42;100769.78;;;0.03;39.59
42887;BME280;29032;56.028;92.904;2023-03-14T12:40:54;100771.03;;;0.11;39.82
42887;BME280;29032;56.028;92.904;2023-03-14T12:46:15;100760.97;;;0.08;39.81
42887;BME280;29032;56.028;92.904;2023-03-14T12:51:29;100771.63;;;0.06;40.01
42887;BME280;29032;56.028;92.904;2023-03-14T13:02:19;100764.78;;;0.11;40.20
42887;BME280;29032;56.028;92.904;2023-03-14T13:12:55;100765.06;;;0.03;39.57
42887;BME280;29032;56.028;92.904;2023-03-14T13:18:03;100758.78;;;0.03;40.33
42887;BME280;29032;56.028;92.904;2023-03-14T13:23:04;100768.22;;;0.24;40.02
42887;BME280;29032;56.028;92.904;2023-03-14T13:28:10;100763.31;;;-0.03;40.02
42887;BME280;29032;56.028;92.904;2023-03-14T13:33:15;100762.59;;;-0.38;40.53
42887;BME280;29032;56.028;92.904;2023-03-14T13:38:20;100756.38;;;-0.73;41.32
42887;BME280;29032;56.028;92.904;2023-03-14T13:43:26;100760.97;;;-0.92;42.05
42887;BME280;29032;56.028;92.904;2023-03-14T13:48:32;100760.75;;;-0.98;42.71
42887;BME280;29032;56.028;92.904;2023-03-14T13:53:43;100762.59;;;-0.95;41.90
42887;BME280;29032;56.028;92.904;2023-03-14T13:58:46;100762.66;;;-1.20;42.21
42887;BME280;29032;56.028;92.904;2023-03-14T14:03:52;100755.19;;;-1.33;42.64
42887;BME280;29032;56.028;92.904;2023-03-14T14:08:55;100759.38;;;-1.41;43.38
42887;BME280;29032;56.028;92.904;2023-03-14T14:13:58;100759.72;;;-1.39;43.27
42887;BME280;29032;56.028;92.904;2023-03-14T14:19:02;100754.75;;;-1.31;43.07
42887;BME280;29032;56.028;92.904;2023-03-14T14:24:05;100754.88;;;-1.35;43.19
42887;BME280;29032;56.028;92.904;2023-03-14T14:29:28;100757.72;;;-1.25;43.10
42887;BME280;29032;56.028;92.904;2023-03-14T14:34:38;100755.19;;;-1.20;43.68
42887;BME280;29032;56.028;92.904;2023-03-14T14:39:41;100757.69;;;-1.13;43.85
42887;BME280;29032;56.028;92.904;2023-03-14T14:44:43;100753.28;;;-1.10;43.67
42887;BME280;29032;56.028;92.904;2023-03-14T14:49:49;100755.81;;;-1.03;44.47
42887;BME280;29032;56.028;92.904;2023-03-14T14:54:52;100754.78;;;-0.84;43.95
42887;BME280;29032;56.028;92.904;2023-03-14T14:59:55;100753.38;;;-0.66;44.02
42887;BME280;29032;56.028;92.904;2023-03-14T15:04:59;100742.34;;;-0.54;43.52
42887;BME280;29032;56.028;92.904;2023-03-14T15:10:02;100743.50;;;-0.42;43.68
42887;BME280;29032;56.028;92.904;2023-03-14T15:15:05;100749.16;;;-0.36;43.44
42887;BME280;29032;56.028;92.904;2023-03-14T15:20:13;100736.06;;;-0.32;43.28
42887;BME280;29032;56.028;92.904;2023-03-14T15:25:16;100737.41;;;-0.37;43.04
42887;BME280;29032;56.028;92.904;2023-03-14T15:30:18;100730.06;;;-0.40;43.10
42887;BME280;29032;56.028;92.904;2023-03-14T15:35:22;100727.31;;;-0.40;43.56
42887;BME280;29032;56.028;92.904;2023-03-14T15:40:24;100717.50;;;-0.50;43.78
42887;BME280;29032;56.028;92.904;2023-03-14T15:45:26;100719.13;;;-0.53;43.82
42887;BME280;29032;56.028;92.904;2023-03-14T15:50:30;100720.50;;;-0.57;43.55
42887;BME280;29032;56.028;92.904;2023-03-14T15:55:32;100712.75;;;-0.71;43.94
42887;BME280;29032;56.028;92.904;2023-03-14T16:00:35;100707.72;;;-0.86;44.28
42887;BME280;29032;56.028;92.904;2023-03-14T16:05:38;100707.09;;;-0.90;44.19
42887;BME280;29032;56.028;92.904;2023-03-14T16:10:41;100705.22;;;-0.93;44.40
42887;BME280;29032;56.028;92.904;2023-03-14T16:15:52;100698.41;;;-0.88;44.07
42887;BME280;29032;56.028;92.904;2023-03-14T16:20:57;100693.59;;;-0.97;44.17
42887;BME280;29032;56.028;92.904;2023-03-14T16:26:03;100692.63;;;-1.03;44.82
42887;BME280;29032;56.028;92.904;2023-03-14T16:31:07;100691.44;;;-1.15;44.92
42887;BME280;29032;56.028;92.904;2023-03-14T16:36:12;100698.81;;;-1.12;44.74
42887;BME280;29032;56.028;92.904;2023-03-14T16:41:15;100693.13;;;-1.17;44.91
42887;BME280;29032;56.028;92.904;2023-03-14T16:46:18;100694.78;;;-1.20;44.70
42887;BME280;29032;56.028;92.904;2023-03-14T16:51:22;100705.53;;;-1.13;44.74
42887;BME280;29032;56.028;92.904;2023-03-14T16:56:24;100703.22;;;-1.14;44.74
42887;BME280;29032;56.028;92.904;2023-03-14T17:01:26;100695.31;;;-1.12;44.70
42887;BME280;29032;56.028;92.904;2023-03-14T17:06:30;100696.28;;;-1.06;44.73
42887;BME280;29032;56.028;92.904;2023-03-14T17:11:32;100688.81;;;-1.06;44.78
42887;BME280;29032;56.028;92.904;2023-03-14T17:16:34;100689.13;;;-1.04;44.86
42887;BME280;29032;56.028;92.904;2023-03-14T17:21:38;100683.44;;;-1.09;44.75
42887;BME280;29032;56.028;92.904;2023-03-14T17:26:40;100676.66;;;-1.17;44.74
42887;BME280;29032;56.028;92.904;2023-03-14T17:31:42;100696.84;;;-1.11;45.09
42887;BME280;29032;56.028;92.904;2023-03-14T17:36:46;100678.13;;;-1.04;44.92
42887;BME280;29032;56.028;92.904;2023-03-14T17:41:48;100684.19;;;-1.09;44.96
42887;BME280;29032;56.028;92.904;2023-03-14T17:46:50;100686.50;;;-1.07;44.86
42887;BME280;29032;56.028;92.904;2023-03-14T17:51:53;100682.09;;;-1.05;44.82
42887;BME280;29032;56.028;92.904;2023-03-14T17:56:56;100681.91;;;-1.10;44.90
42887;BME280;29032;56.028;92.904;2023-03-14T18:01:58;100681.91;;;-1.10;44.94
42887;BME280;29032;56.028;92.904;2023-03-14T18:07:01;100688.03;;;-1.06;44.85
42887;BME280;29032;56.028;92.904;2023-03-14T18:12:03;100683.19;;;-1.02;44.82
42887;BME280;29032;56.028;92.904;2023-03-14T18:17:06;100681.84;;;-0.97;44.15
42887;BME280;29032;56.028;92.904;2023-03-14T18:22:09;100691.38;;;-0.89;44.08
42887;BME280;29032;56.028;92.904;2023-03-14T18:27:11;100686.00;;;-0.93;44.11
42887;BME280;29032;56.028;92.904;2023-03-14T18:32:13;100690.16;;;-0.88;43.71
42887;BME280;29032;56.028;92.904;2023-03-14T18:37:18;100689.59;;;-0.83;43.58
42887;BME280;29032;56.028;92.904;2023-03-14T18:42:20;100696.75;;;-0.86;43.72
42887;BME280;29032;56.028;92.904;2023-03-14T18:47:22;100700.59;;;-0.83;43.98
42887;BME280;29032;56.028;92.904;2023-03-14T18:52:26;100694.09;;;-0.77;43.69
42887;BME280;29032;56.028;92.904;2023-03-14T18:57:28;100696.84;;;-0.77;43.42
42887;BME280;29032;56.028;92.904;2023-03-14T19:02:30;100696.84;;;-0.77;43.27
42887;BME280;29032;56.028;92.904;2023-03-14T19:07:34;100697.59;;;-0.76;43.97
42887;BME280;29032;56.028;92.904;2023-03-14T19:12:36;100701.22;;;-0.79;43.61
42887;BME280;29032;56.028;92.904;2023-03-14T19:17:38;100700.13;;;-0.82;43.07
42887;BME280;29032;56.028;92.904;2023-03-14T19:22:42;100689.59;;;-0.83;43.65
42887;BME280;29032;56.028;92.904;2023-03-14T19:27:44;100694.44;;;-0.87;43.24
42887;BME280;29032;56.028;92.904;2023-03-14T19:32:46;100680.50;;;-0.93;43.33
42887;BME280;29032;56.028;92.904;2023-03-14T19:37:50;100688.44;;;-0.95;43.66
42887;BME280;29032;56.028;92.904;2023-03-14T19:42:52;100675.84;;;-1.05;43.31
42887;BME280;29032;56.028;92.904;2023-03-14T19:47:54;100677.53;;;-1.20;43.74
42887;BME280;29032;56.028;92.904;2023-03-14T19:52:58;100663.94;;;-1.37;44.18
42887;BME280;29032;56.028;92.904;2023-03-14T19:58:00;100668.38;;;-1.52;44.94
42887;BME280;29032;56.028;92.904;2023-03-14T20:03:03;100660.06;;;-1.61;44.84
42887;BME280;29032;56.028;92.904;2023-03-14T20:08:06;100669.16;;;-1.64;45.06
42887;BME280;29032;56.028;92.904;2023-03-14T20:13:08;100667.22;;;-1.76;44.91
42887;BME280;29032;56.028;92.904;2023-03-14T20:18:10;100665.88;;;-1.84;45.05
42887;BME280;29032;56.028;92.904;2023-03-14T20:23:14;100661.06;;;-1.80;45.39
42887;BME280;29032;56.028;92.904;2023-03-14T20:28:16;100667.00;;;-1.82;45.06
42887;BME280;29032;56.028;92.904;2023-03-14T20:33:18;100658.31;;;-1.80;45.22
42887;BME280;29032;56.028;92.904;2023-03-14T20:38:22;100662.03;;;-1.74;44.94
42887;BME280;29032;56.028;92.904;2023-03-14T20:43:25;100655.88;;;-1.78;45.37
42887;BME280;29032;56.028;92.904;2023-03-14T20:48:28;100658.97;;;-1.76;45.13
42887;BME280;29032;56.028;92.904;2023-03-14T20:53:32;100669.72;;;-1.69;45.20
42887;BME280;29032;56.028;92.904;2023-03-14T20:58:34;100661.28;;;-1.75;45.13
42887;BME280;29032;56.028;92.904;2023-03-14T21:03:36;100670.91;;;-1.70;45.04
42887;BME280;29032;56.028;92.904;2023-03-14T21:08:40;100666.53;;;-1.68;45.10
42887;BME280;29032;56.028;92.904;2023-03-14T21:13:42;100666.63;;;-1.71;44.72
42887;BME280;29032;56.028;92.904;2023-03-14T21:18:44;100656.25;;;-1.89;45.10
42887;BME280;29032;56.028;92.904;2023-03-14T21:23:48;100654.16;;;-1.98;45.13
42887;BME280;29032;56.028;92.904;2023-03-14T21:28:50;100653.03;;;-2.13;45.72
42887;BME280;29032;56.028;92.904;2023-03-14T21:33:52;100658.75;;;-2.20;45.05
42887;BME280;29032;56.028;92.904;2023-03-14T21:38:56;100673.09;;;-2.29;45.28
42887;BME280;29032;56.028;92.904;2023-03-14T21:43:58;100667.78;;;-2.49;46.05
42887;BME280;29032;56.028;92.904;2023-03-14T21:49:00;100687.94;;;-2.55;45.72
42887;BME280;29032;56.028;92.904;2023-03-14T21:54:04;100693.34;;;-2.52;45.88
42887;BME280;29032;56.028;92.904;2023-03-14T21:59:06;100682.38;;;-2.52;45.94
42887;BME280;29032;56.028;92.904;2023-03-14T22:04:09;100690.47;;;-2.48;45.50
42887;BME280;29032;56.028;92.904;2023-03-14T22:09:12;100684.03;;;-2.42;45.63
42887;BME280;29032;56.028;92.904;2023-03-14T22:14:14;100697.41;;;-2.44;45.63
42887;BME280;29032;56.028;92.904;2023-03-14T22:19:16;100692.03;;;-2.47;45.50
42887;BME280;29032;56.028;92.904;2023-03-14T22:24:20;100692.13;;;-2.51;45.38
42887;BME280;29032;56.028;92.904;2023-03-14T22:29:23;100694.38;;;-2.62;45.61
42887;BME280;29032;56.028;92.904;2023-03-14T22:34:25;100692.19;;;-2.67;45.49
42887;BME280;29032;56.028;92.904;2023-03-14T22:39:29;100697.25;;;-2.65;45.88
42887;BME280;29032;56.028;92.904;2023-03-14T22:44:32;100696.91;;;-2.67;45.75
42887;BME280;29032;56.028;92.904;2023-03-14T22:49:34;100700.94;;;-2.72;45.89
42887;BME280;29032;56.028;92.904;2023-03-14T22:54:37;100707.75;;;-2.93;46.01
42887;BME280;29032;56.028;92.904;2023-03-14T22:59:39;100713.88;;;-3.18;46.25
42887;BME280;29032;56.028;92.904;2023-03-14T23:04:41;100707.03;;;-3.26;46.32
42887;BME280;29032;56.028;92.904;2023-03-14T23:09:45;100706.34;;;-3.30;46.81
42887;BME280;29032;56.028;92.904;2023-03-14T23:14:47;100708.59;;;-3.25;46.57
42887;BME280;29032;56.028;92.904;2023-03-14T23:19:49;100710.78;;;-3.20;46.71
42887;BME280;29032;56.028;92.904;2023-03-14T23:24:53;100705.91;;;-3.12;46.63
42887;BME280;29032;56.028;92.904;2023-03-14T23:29:55;100702.06;;;-3.15;46.40
42887;BME280;29032;56.028;92.904;2023-03-14T23:34:57;100705.13;;;-3.13;46.40
42887;BME280;29032;56.028;92.904;2023-03-14T23:40:01;100704.94;;;-3.06;46.60
42887;BME280;29032;56.028;92.904;2023-03-14T23:45:04;100702.47;;;-3.00;46.29
42887;BME280;29032;56.028;92.904;2023-03-14T23:50:07;100701.59;;;-2.97;46.01
42887;BME280;29032;56.028;92.904;2023-03-14T23:55:11;100698.00;;;-2.94;45.89
